createdAt,value
2022-12-09T00:01:17.862Z,15.00
2022-12-09T00:03:46.536Z,15.82
2022-12-09T00:06:17.449Z,16.10
2022-12-09T00:08:45.283Z,16.05
2022-12-09T00:11:13.861Z,17.85
2022-12-09T00:13:41.696Z,17.27
2022-12-09T00:16:12.635Z,15.02
2022-12-09T00:18:40.907Z,18.92
2022-12-09T00:21:15.560Z,15.43
2022-12-09T00:23:43.414Z,14.25
2022-12-09T00:26:11.545Z,14.77
2022-12-09T00:28:40.034Z,12.57
2022-12-09T00:31:10.484Z,12.77
2022-12-09T00:33:39.018Z,10.88
2022-12-09T00:36:09.343Z,11.05
2022-12-09T00:38:37.782Z,8.85
2022-12-09T00:41:06.092Z,7.25
2022-12-09T00:43:34.408Z,6.28
2022-12-09T00:46:02.861Z,7.28
2022-12-09T00:48:31.020Z,5.65
2022-12-09T00:50:59.677Z,6.45
2022-12-09T00:53:27.913Z,5.47
2022-12-09T00:55:55.804Z,5.07
2022-12-09T00:58:24.081Z,4.90
2022-12-09T01:00:54.279Z,5.93
2022-12-09T01:03:22.293Z,5.47
2022-12-09T01:05:50.517Z,6.22
2022-12-09T01:08:18.691Z,6.30
2022-12-09T01:10:46.841Z,7.68
2022-12-09T01:13:15.834Z,6.40
2022-12-09T01:15:44.611Z,5.40
2022-12-09T01:18:13.168Z,6.78
2022-12-09T01:20:40.990Z,5.72
2022-12-09T01:23:08.760Z,5.93
2022-12-09T01:25:38.343Z,5.13
2022-12-09T01:28:06.184Z,5.32
2022-12-09T01:30:33.834Z,5.32
2022-12-09T01:33:01.855Z,5.53
2022-12-09T01:35:29.971Z,5.93
2022-12-09T01:37:57.927Z,6.13
2022-12-09T01:40:25.792Z,5.43
2022-12-09T01:42:54.240Z,6.63
2022-12-09T01:45:22.492Z,4.45
2022-12-09T01:48:00.337Z,6.22
2022-12-09T01:50:29.475Z,6.25
2022-12-09T01:52:57.891Z,7.68
2022-12-09T01:55:27.908Z,6.70
2022-12-09T01:57:55.522Z,5.22
2022-12-09T02:00:23.513Z,6.38
2022-12-09T02:02:53.466Z,6.20
2022-12-09T02:05:24.579Z,5.78
2022-12-09T02:07:58.755Z,6.25
2022-12-09T02:10:28.046Z,6.28
2022-12-09T02:13:22.587Z,9.68
2022-12-09T02:16:03.305Z,8.50
2022-12-09T02:18:37.295Z,7.38
2022-12-09T02:21:12.443Z,8.32
2022-12-09T02:23:51.840Z,7.63
2022-12-09T02:26:38.145Z,10.15
2022-12-09T02:29:30.571Z,10.18
2022-12-09T02:32:07.667Z,8.82
2022-12-09T02:34:44.295Z,9.50
2022-12-09T02:37:25.437Z,9.55
2022-12-09T02:39:58.627Z,8.50
2022-12-09T02:42:32.355Z,10.30
2022-12-09T02:45:05.100Z,7.80
2022-12-09T02:47:36.923Z,8.23
2022-12-09T02:50:13.277Z,7.50
2022-12-09T02:52:42.821Z,8.40
2022-12-09T02:55:15.787Z,8.02
2022-12-09T02:57:43.577Z,11.50
2022-12-09T03:00:15.638Z,8.48
2022-12-09T03:02:47.836Z,8.55
2022-12-09T03:05:26.149Z,10.57
2022-12-09T03:08:07.112Z,9.30
2022-12-09T03:10:43.586Z,11.02
2022-12-09T03:13:50.093Z,9.87
2022-12-09T03:16:29.851Z,8.95
2022-12-09T03:19:06.957Z,9.55
2022-12-09T03:21:38.844Z,10.85
2022-12-09T03:24:10.437Z,11.50
2022-12-09T03:26:39.556Z,12.48
2022-12-09T03:29:13.680Z,11.00
2022-12-09T03:31:43.164Z,11.05
2022-12-09T03:34:16.289Z,11.23
2022-12-09T03:36:48.591Z,11.88
2022-12-09T03:39:20.592Z,10.60
2022-12-09T03:41:52.880Z,10.27
2022-12-09T03:44:23.471Z,11.90
2022-12-09T03:46:51.652Z,12.77
2022-12-09T03:49:19.575Z,12.27
2022-12-09T03:51:55.084Z,11.82
2022-12-09T03:54:35.683Z,11.35
2022-12-09T03:57:04.763Z,11.00
2022-12-09T03:59:34.922Z,10.85
2022-12-09T04:02:06.064Z,10.70
2022-12-09T04:04:38.661Z,11.30
2022-12-09T04:07:06.948Z,10.57
2022-12-09T04:09:35.935Z,10.57
2022-12-09T04:12:04.190Z,9.68
2022-12-09T04:14:32.326Z,10.50
2022-12-09T04:17:00.273Z,10.75
2022-12-09T04:19:28.372Z,10.30
2022-12-09T04:21:56.190Z,10.65
2022-12-09T04:24:24.327Z,9.48
2022-12-09T04:26:52.168Z,9.30
2022-12-09T04:29:19.984Z,10.52
2022-12-09T04:31:47.946Z,10.95
2022-12-09T04:34:16.266Z,9.32
2022-12-09T04:36:44.405Z,9.27
2022-12-09T04:39:12.142Z,8.88
2022-12-09T04:41:40.063Z,10.25
2022-12-09T04:44:07.874Z,9.13
2022-12-09T04:46:35.847Z,9.73
2022-12-09T04:49:04.177Z,8.13
2022-12-09T04:51:39.119Z,8.60
2022-12-09T04:54:12.583Z,10.23
2022-12-09T04:56:41.102Z,7.40
2022-12-09T04:59:08.926Z,7.72
2022-12-09T05:01:37.090Z,9.80
2022-12-09T05:04:05.447Z,7.63
2022-12-09T05:06:33.648Z,9.38
2022-12-09T05:09:02.182Z,8.88
2022-12-09T05:11:30.452Z,7.80
2022-12-09T05:13:58.529Z,7.18
2022-12-09T05:16:26.461Z,7.88
2022-12-09T05:18:54.723Z,9.25
2022-12-09T05:21:22.566Z,8.40
2022-12-09T05:23:50.416Z,10.05
2022-12-09T05:26:20.801Z,8.60
2022-12-09T05:28:49.386Z,7.50
2022-12-09T05:31:20.059Z,9.18
2022-12-09T05:33:49.662Z,8.65
2022-12-09T05:36:20.144Z,7.75
2022-12-09T05:38:49.067Z,8.93
2022-12-09T05:41:18.603Z,8.40
2022-12-09T05:43:46.636Z,7.25
2022-12-09T05:46:15.200Z,9.27
2022-12-09T05:48:44.329Z,8.80
2022-12-09T05:51:16.803Z,8.70
2022-12-09T05:53:44.596Z,9.35
2022-12-09T05:56:16.163Z,10.00
2022-12-09T05:58:44.412Z,11.00
2022-12-09T06:01:13.089Z,10.95
2022-12-09T06:03:45.728Z,10.35
2022-12-09T06:06:16.344Z,10.80
2022-12-09T06:08:45.926Z,11.88
2022-12-09T06:11:16.832Z,10.68
2022-12-09T06:13:45.930Z,11.45
2022-12-09T06:16:15.425Z,13.82
2022-12-09T06:18:43.633Z,13.70
2022-12-09T06:21:13.416Z,12.95
2022-12-09T06:23:42.905Z,16.20
2022-12-09T06:26:29.165Z,18.55
2022-12-09T06:28:58.426Z,18.23
2022-12-09T06:31:28.306Z,17.25
2022-12-09T06:33:58.401Z,18.85
2022-12-09T06:36:28.890Z,17.17
2022-12-09T06:39:05.945Z,15.00
2022-12-09T06:41:42.148Z,15.93
2022-12-09T06:44:15.870Z,13.63
2022-12-09T06:46:49.549Z,13.18
2022-12-09T06:49:17.531Z,11.02
2022-12-09T06:51:46.222Z,10.38
2022-12-09T06:54:14.156Z,12.23
2022-12-09T06:56:42.515Z,10.02
2022-12-09T06:59:11.255Z,9.68
2022-12-09T07:01:39.862Z,11.73
2022-12-09T07:04:08.411Z,11.57
2022-12-09T07:06:39.260Z,10.13
2022-12-09T07:09:08.913Z,10.38
2022-12-09T07:11:37.867Z,9.15
2022-12-09T07:14:06.208Z,8.18
2022-12-09T07:16:35.150Z,8.27
2022-12-09T07:19:04.386Z,7.15
2022-12-09T07:21:32.638Z,7.20
2022-12-09T07:24:02.875Z,5.82
2022-12-09T07:26:32.775Z,5.95
2022-12-09T07:29:05.232Z,4.65
2022-12-09T07:31:33.984Z,4.03
2022-12-09T07:34:04.104Z,5.43
2022-12-09T07:36:35.129Z,3.50
2022-12-09T07:39:07.092Z,4.15
2022-12-09T07:41:35.333Z,5.22
2022-12-09T07:44:04.103Z,4.35
2022-12-09T07:46:32.445Z,3.95
2022-12-09T07:49:02.742Z,4.70
2022-12-09T07:51:30.968Z,4.47
2022-12-09T07:53:59.465Z,5.93
2022-12-09T07:56:29.347Z,4.90
2022-12-09T07:58:57.599Z,5.50
2022-12-09T08:01:28.523Z,5.10
2022-12-09T08:03:57.308Z,4.95
2022-12-09T08:06:28.215Z,4.50
2022-12-09T08:09:01.849Z,3.08
2022-12-09T08:11:31.865Z,3.53
2022-12-09T08:14:08.987Z,3.75
2022-12-09T08:16:40.457Z,3.45
2022-12-09T08:19:09.027Z,6.57
2022-12-09T08:21:37.063Z,3.40
2022-12-09T08:24:07.733Z,3.28
2022-12-09T08:26:40.011Z,3.33
2022-12-09T08:29:13.597Z,3.72
2022-12-09T08:31:44.093Z,3.90
2022-12-09T08:34:13.051Z,8.57
2022-12-09T08:36:42.358Z,8.35
2022-12-09T08:39:11.596Z,5.43
2022-12-09T08:41:40.254Z,4.82
2022-12-09T08:44:17.392Z,5.45
2022-12-09T08:46:48.303Z,4.95
2022-12-09T08:49:22.342Z,5.25
2022-12-09T08:51:53.462Z,3.85
2022-12-09T08:54:21.768Z,4.45
2022-12-09T08:56:52.261Z,5.95
2022-12-09T08:59:20.325Z,7.22
2022-12-09T09:01:48.479Z,8.13
2022-12-09T09:04:20.472Z,9.20
2022-12-09T09:06:50.582Z,10.52
2022-12-09T09:09:20.304Z,6.22
2022-12-09T09:11:48.927Z,5.50
2022-12-09T09:14:17.433Z,4.50
2022-12-09T09:16:46.246Z,4.55
2022-12-09T09:19:17.610Z,5.13
2022-12-09T09:21:45.775Z,4.68
2022-12-09T09:24:16.745Z,2.92
2022-12-09T09:26:45.670Z,5.10
2022-12-09T09:29:16.009Z,3.67
2022-12-09T09:31:44.831Z,3.63
2022-12-09T09:34:13.193Z,3.08
2022-12-09T09:36:41.365Z,3.33
2022-12-09T09:39:09.787Z,4.85
2022-12-09T09:41:54.698Z,3.22
2022-12-09T09:44:25.807Z,3.92
2022-12-09T09:46:56.653Z,2.92
2022-12-09T09:49:30.913Z,3.70
2022-12-09T09:52:07.252Z,4.20
2022-12-09T09:54:35.161Z,5.88
2022-12-09T09:57:12.618Z,4.03
2022-12-09T10:00:07.268Z,5.68
2022-12-09T10:03:05.077Z,3.70
2022-12-09T10:05:41.328Z,3.13
2022-12-09T10:08:25.087Z,3.83
2022-12-09T10:11:09.122Z,3.97
2022-12-09T10:13:45.236Z,2.92
2022-12-09T10:16:25.115Z,4.07
2022-12-09T10:19:14.779Z,3.97
2022-12-09T10:21:45.525Z,6.88
2022-12-09T10:24:31.764Z,7.47
2022-12-09T10:27:12.781Z,7.32
2022-12-09T10:30:02.896Z,6.93
2022-12-09T10:32:33.939Z,6.57
2022-12-09T10:35:14.318Z,5.22
2022-12-09T10:37:42.347Z,4.53
2022-12-09T10:40:10.923Z,5.03
2022-12-09T10:43:05.872Z,5.00
2022-12-09T10:46:08.023Z,6.05
2022-12-09T10:48:34.242Z,3.97
2022-12-09T10:51:12.288Z,4.13
2022-12-09T10:54:02.925Z,3.63
2022-12-09T10:56:36.937Z,3.35
2022-12-09T10:59:13.881Z,5.82
2022-12-09T11:01:49.666Z,4.85
2022-12-09T11:04:28.136Z,2.47
2022-12-09T11:07:07.936Z,2.88
2022-12-09T11:09:39.534Z,3.47
2022-12-09T11:12:19.241Z,2.63
2022-12-09T11:14:53.432Z,2.70
2022-12-09T11:17:28.582Z,2.88
2022-12-09T11:20:26.291Z,3.92
2022-12-09T11:23:14.405Z,4.18
2022-12-09T11:26:00.243Z,5.22
2022-12-09T11:28:36.170Z,4.07
2022-12-09T11:31:32.758Z,5.80
2022-12-09T11:34:05.444Z,3.50
2022-12-09T11:36:37.274Z,3.17
2022-12-09T11:39:25.552Z,3.95
2022-12-09T11:42:17.377Z,3.95
2022-12-09T11:45:02.996Z,3.47
2022-12-09T11:48:21.130Z,2.90
2022-12-09T11:50:33.420Z,2.95
2022-12-09T11:53:11.133Z,4.20
2022-12-09T11:55:46.392Z,5.60
2022-12-09T11:58:18.358Z,4.35
2022-12-09T12:00:55.730Z,2.65
2022-12-09T12:03:36.678Z,3.55
2022-12-09T12:06:08.743Z,2.95
2022-12-09T12:08:46.722Z,3.05
2022-12-09T12:11:30.955Z,3.63
2022-12-09T12:14:13.034Z,3.00
2022-12-09T12:17:09.235Z,2.30
2022-12-09T12:19:42.134Z,4.22
2022-12-09T12:22:09.667Z,2.53
2022-12-09T12:25:17.796Z,2.67
2022-12-09T12:28:01.572Z,4.75
2022-12-09T12:30:59.963Z,3.05
2022-12-09T12:36:40.084Z,5.32
2022-12-09T12:39:28.475Z,7.80
2022-12-09T12:42:25.692Z,7.20
2022-12-09T12:45:31.439Z,13.30
2022-12-09T12:48:08.906Z,6.93
2022-12-09T12:50:57.829Z,7.60
2022-12-09T12:53:34.595Z,9.10
2022-12-09T12:56:07.885Z,5.95
2022-12-09T12:59:07.984Z,9.82
2022-12-09T13:02:01.092Z,7.55
2022-12-09T13:04:44.423Z,4.82
2022-12-09T13:07:20.948Z,5.35
2022-12-09T13:09:48.797Z,6.65
2022-12-09T13:12:45.481Z,6.40
2022-12-09T13:15:17.827Z,9.63
2022-12-09T13:17:48.441Z,9.15
2022-12-09T13:20:30.197Z,14.80
2022-12-09T13:23:12.917Z,17.33
2022-12-09T13:26:20.276Z,13.57
2022-12-09T13:28:52.028Z,14.13
2022-12-09T13:31:29.413Z,17.08
2022-12-09T13:34:26.120Z,16.65
2022-12-09T13:36:53.810Z,18.17
2022-12-09T13:39:39.993Z,14.73
2022-12-09T13:42:46.326Z,15.32
2022-12-09T13:45:16.430Z,13.32
2022-12-09T13:47:44.290Z,12.25
2022-12-09T13:50:28.958Z,16.08
2022-12-09T13:53:34.351Z,12.05
2022-12-09T13:56:17.776Z,12.18
2022-12-09T13:59:05.150Z,10.82
2022-12-09T14:01:42.029Z,8.82
2022-12-09T14:04:18.861Z,10.38
2022-12-09T14:06:46.403Z,11.27
2022-12-09T14:09:39.293Z,9.38
2022-12-09T14:12:11.906Z,11.10
2022-12-09T14:14:52.759Z,10.43
2022-12-09T14:17:27.224Z,12.82
2022-12-09T14:20:04.164Z,17.38
2022-12-09T14:25:26.509Z,16.25
2022-12-09T14:28:24.451Z,14.23
2022-12-09T14:31:02.008Z,13.55
2022-12-09T14:33:47.312Z,13.68
2022-12-09T14:36:14.905Z,12.10
2022-12-09T14:41:53.311Z,9.70
2022-12-09T14:44:39.064Z,10.13
2022-12-09T14:47:28.495Z,7.70
2022-12-09T14:50:05.909Z,10.50
2022-12-09T14:52:34.719Z,13.50
2022-12-09T14:55:09.381Z,9.82
2022-12-09T14:57:41.689Z,7.28
2022-12-09T15:00:36.220Z,7.85
2022-12-09T15:03:44.863Z,6.03
2022-12-09T15:06:16.804Z,7.20
2022-12-09T15:08:44.701Z,6.07
2022-12-09T15:11:19.503Z,6.97
2022-12-09T15:13:50.560Z,8.60
2022-12-09T15:16:21.532Z,10.45
2022-12-09T15:18:51.331Z,7.57
2022-12-09T15:21:29.608Z,7.75
2022-12-09T15:24:00.867Z,8.77
2022-12-09T15:26:33.688Z,9.07
2022-12-09T15:29:05.374Z,6.63
2022-12-09T15:31:34.698Z,7.80
2022-12-09T15:34:14.804Z,5.57
2022-12-09T15:36:47.794Z,5.45
2022-12-09T15:39:18.331Z,5.05
2022-12-09T15:42:07.271Z,9.40
2022-12-09T15:44:44.600Z,7.45
2022-12-09T15:47:18.478Z,5.38
2022-12-09T15:49:53.721Z,5.53
2022-12-09T15:52:27.649Z,15.10
2022-12-09T15:54:56.872Z,20.85
2022-12-09T15:57:28.163Z,20.48
2022-12-09T15:59:58.487Z,12.48
2022-12-09T16:02:29.875Z,9.38
2022-12-09T16:05:02.011Z,9.90
2022-12-09T16:07:33.276Z,8.18
2022-12-09T16:10:01.012Z,7.65
2022-12-09T16:12:32.740Z,4.82
2022-12-09T16:15:02.308Z,6.43
2022-12-09T16:17:38.564Z,6.55
2022-12-09T16:20:35.976Z,6.05
2022-12-09T16:23:06.237Z,5.60
2022-12-09T16:25:45.044Z,3.67
2022-12-09T16:28:22.811Z,3.72
2022-12-09T16:31:01.874Z,3.30
2022-12-09T16:33:35.497Z,5.80
2022-12-09T16:36:06.683Z,4.80
2022-12-09T16:38:37.009Z,4.68
2022-12-09T16:41:08.228Z,4.18
2022-12-09T16:43:36.900Z,3.35
2022-12-09T16:46:14.072Z,3.55
2022-12-09T16:48:42.780Z,4.80
2022-12-09T16:51:11.799Z,6.28
2022-12-09T16:53:44.663Z,6.30
2022-12-09T16:56:25.367Z,7.70
2022-12-09T16:58:54.344Z,5.22
2022-12-09T17:01:29.693Z,5.40
2022-12-09T17:04:02.838Z,9.07
2022-12-09T17:06:32.150Z,5.80
2022-12-09T17:08:59.845Z,5.25
2022-12-09T17:11:27.770Z,7.35
2022-12-09T17:13:55.452Z,5.72
2022-12-09T17:16:25.853Z,8.10
2022-12-09T17:18:53.748Z,6.40
2022-12-09T17:21:21.571Z,5.85
2022-12-09T17:23:49.317Z,6.10
2022-12-09T17:26:19.278Z,6.47
2022-12-09T17:28:49.187Z,8.25
2022-12-09T17:31:22.474Z,6.63
2022-12-09T17:33:51.413Z,6.10
2022-12-09T17:36:20.096Z,6.97
2022-12-09T17:38:48.148Z,6.13
2022-12-09T17:41:20.847Z,6.63
2022-12-09T17:43:48.652Z,7.80
2022-12-09T17:46:16.524Z,7.95
2022-12-09T17:48:44.505Z,8.48
2022-12-09T17:51:14.836Z,6.57
2022-12-09T17:53:43.334Z,9.88
2022-12-09T17:56:16.119Z,8.70
2022-12-09T17:58:44.492Z,8.38
2022-12-09T18:01:14.967Z,11.60
2022-12-09T18:03:56.040Z,9.45
2022-12-09T18:06:26.116Z,10.55
2022-12-09T18:08:54.783Z,8.40
2022-12-09T18:11:23.038Z,9.25
2022-12-09T18:13:51.138Z,8.77
2022-12-09T18:16:19.413Z,9.43
2022-12-09T18:18:47.554Z,9.65
2022-12-09T18:21:16.195Z,8.23
2022-12-09T18:23:44.267Z,9.82
2022-12-09T18:26:14.140Z,9.07
2022-12-09T18:28:44.735Z,8.52
2022-12-09T18:31:19.347Z,6.63
2022-12-09T18:33:48.341Z,8.68
2022-12-09T18:36:18.891Z,6.72
2022-12-09T18:38:47.342Z,7.68
2022-12-09T18:41:21.321Z,5.22
2022-12-09T18:43:51.431Z,5.65
2022-12-09T18:46:25.411Z,5.63
2022-12-09T18:49:02.180Z,7.18
2022-12-09T18:51:29.957Z,5.72
2022-12-09T18:53:59.004Z,8.18
2022-12-09T18:56:27.458Z,8.35
2022-12-09T18:59:11.777Z,9.77
2022-12-09T19:01:42.085Z,7.25
2022-12-09T19:04:23.656Z,5.32
2022-12-09T19:06:54.835Z,8.15
2022-12-09T19:09:35.128Z,6.85
2022-12-09T19:12:37.981Z,9.55
2022-12-09T19:14:52.784Z,10.32
2022-12-09T19:17:21.561Z,7.25
2022-12-09T19:19:49.901Z,7.28
2022-12-09T19:22:17.529Z,7.95
2022-12-09T19:24:45.362Z,8.50
2022-12-09T19:27:13.520Z,11.02
2022-12-09T19:29:41.515Z,7.53
2022-12-09T19:32:29.383Z,8.50
2022-12-09T19:37:24.480Z,9.38
2022-12-09T19:39:52.446Z,16.13
2022-12-09T19:42:20.237Z,14.10
2022-12-09T19:45:10.452Z,109.97
2022-12-09T19:47:38.594Z,235.45
2022-12-09T19:50:07.577Z,152.93
2022-12-09T19:52:35.465Z,105.43
2022-12-09T19:55:04.464Z,102.30
2022-12-09T19:57:32.202Z,67.90
2022-12-09T19:59:59.831Z,48.42
2022-12-09T20:02:27.473Z,30.65
2022-12-09T20:04:55.196Z,27.20
2022-12-09T20:07:22.918Z,20.73
2022-12-09T20:09:50.653Z,19.13
2022-12-09T20:12:18.544Z,17.52
2022-12-09T20:14:46.299Z,17.98
2022-12-09T20:17:13.964Z,19.52
2022-12-09T20:19:44.081Z,25.67
2022-12-09T20:22:11.777Z,32.08
2022-12-09T20:24:39.509Z,27.73
2022-12-09T20:27:07.211Z,20.88
2022-12-09T20:29:37.880Z,19.33
2022-12-09T20:32:08.445Z,13.43
2022-12-09T20:34:36.424Z,15.77
2022-12-09T20:37:04.635Z,16.92
2022-12-09T20:39:32.481Z,12.85
2022-12-09T20:42:00.742Z,14.35
2022-12-09T20:44:28.513Z,15.70
2022-12-09T20:46:57.043Z,14.50
2022-12-09T20:49:27.150Z,15.60
2022-12-09T20:51:55.764Z,19.75
2022-12-09T20:54:23.504Z,21.48
2022-12-09T20:56:51.658Z,19.30
2022-12-09T20:59:19.239Z,23.60
2022-12-09T21:01:47.513Z,37.20
2022-12-09T21:04:15.811Z,35.85
2022-12-09T21:06:44.053Z,31.08
2022-12-09T21:09:17.549Z,19.95
2022-12-09T21:11:46.822Z,16.77
2022-12-09T21:14:18.373Z,16.98
2022-12-09T21:16:47.399Z,12.77
2022-12-09T21:19:17.088Z,15.52
2022-12-09T21:21:48.177Z,12.43
2022-12-09T21:24:16.655Z,11.30
2022-12-09T21:26:47.308Z,13.85
2022-12-09T21:29:15.638Z,10.93
2022-12-09T21:31:44.463Z,10.82
2022-12-09T21:34:12.829Z,10.18
2022-12-09T21:36:44.317Z,12.52
2022-12-09T21:39:14.092Z,11.48
2022-12-09T21:41:42.794Z,11.13
2022-12-09T21:44:18.105Z,12.25
2022-12-09T21:46:46.418Z,10.40
2022-12-09T21:49:14.910Z,10.80
2022-12-09T21:51:43.630Z,10.45
2022-12-09T21:54:11.983Z,12.32
2022-12-09T21:56:40.072Z,11.55
2022-12-09T21:59:08.398Z,11.35
2022-12-09T22:01:39.031Z,10.77
2022-12-09T22:04:10.059Z,11.70
2022-12-09T22:06:39.124Z,9.25
2022-12-09T22:09:08.054Z,10.30
2022-12-09T22:11:37.429Z,9.38
2022-12-09T22:14:06.403Z,9.45
2022-12-09T22:16:40.811Z,10.85
2022-12-09T22:19:11.042Z,10.75
2022-12-09T22:21:39.306Z,9.95
2022-12-09T22:24:08.414Z,9.98
2022-12-09T22:26:36.043Z,9.23
2022-12-09T22:29:05.694Z,9.13
2022-12-09T22:31:37.904Z,10.27
2022-12-09T22:34:13.117Z,8.85
2022-12-09T22:36:41.262Z,9.65
2022-12-09T22:39:13.645Z,8.13
2022-12-09T22:41:41.930Z,9.27
2022-12-09T22:44:12.736Z,8.82
2022-12-09T22:46:42.573Z,10.35
2022-12-09T22:49:12.362Z,10.23
2022-12-09T22:51:41.603Z,7.90
2022-12-09T22:54:10.227Z,10.48
2022-12-09T22:56:39.985Z,10.27
2022-12-09T22:59:07.756Z,7.85
2022-12-09T23:01:37.493Z,10.10
2022-12-09T23:04:07.226Z,12.00
2022-12-09T23:06:37.826Z,11.52
2022-12-09T23:09:14.998Z,11.90
2022-12-09T23:11:42.760Z,10.38
2022-12-09T23:14:10.559Z,8.43
2022-12-09T23:16:38.218Z,9.50
2022-12-09T23:19:06.005Z,7.70
2022-12-09T23:21:36.682Z,8.82
2022-12-09T23:24:22.551Z,8.75
2022-12-09T23:26:55.901Z,7.82
2022-12-09T23:29:23.667Z,7.78
2022-12-09T23:31:51.632Z,8.23
2022-12-09T23:34:19.555Z,8.70
2022-12-09T23:36:47.492Z,8.23
2022-12-09T23:39:17.735Z,8.15
2022-12-09T23:41:46.456Z,8.55
2022-12-09T23:44:20.053Z,9.60
2022-12-09T23:46:48.086Z,7.25
2022-12-09T23:49:16.346Z,7.47
2022-12-09T23:51:44.730Z,7.43
2022-12-09T23:54:14.827Z,6.53
2022-12-09T23:56:48.055Z,6.53
2022-12-09T23:59:18.186Z,5.82
